Time;durP1;ratioP1;P1;durP2;ratioP2;P2;SDS_P1;SDS_P2;PMS_P1;PMS_P2;Temp;Humidity;BMP_temperature;BMP_pressure;BME280_temperature;BME280_humidity;BME280_pressure;Samples;Min_cycle;Max_cycle;Signal;HPM_P1;HPM_P2
2023/08/28 00:00:26;;;;;;;2.88;1.77;;;;;;;;;;4995428;28;20038;-68
2023/08/28 00:02:51;;;;;;;2.63;1.63;;;;;;;;;;5003312;28;20141;-68
2023/08/28 00:05:16;;;;;;;4.45;1.98;;;;;;;;;;5005831;28;20038;-68
2023/08/28 00:07:42;;;;;;;2.70;1.80;;;;;;;;;;4982799;28;20030;-68
2023/08/28 00:10:08;;;;;;;2.78;2.13;;;;;;;;;;4988188;28;20050;-68
2023/08/28 00:12:36;;;;;;;7.78;2.30;;;;;;;;;;4990205;28;20697;-68
2023/08/28 00:15:02;;;;;;;4.13;2.03;;;;;;;;;;4990944;28;20041;-68
2023/08/28 00:17:28;;;;;;;4.38;2.42;;;;;;;;;;4997990;28;20048;-68
2023/08/28 00:19:53;;;;;;;4.10;2.35;;;;;;;;;;4999482;28;20586;-68
2023/08/28 00:22:18;;;;;;;3.78;2.55;;;;;;;;;;4997988;28;20026;-68
2023/08/28 00:24:44;;;;;;;4.05;2.60;;;;;;;;;;4986126;28;20100;-68
2023/08/28 00:27:09;;;;;;;5.65;2.80;;;;;;;;;;4986853;28;20133;-68
2023/08/28 00:29:34;;;;;;;4.97;2.95;;;;;;;;;;4998942;28;20045;-68
2023/08/28 00:32:00;;;;;;;5.80;2.95;;;;;;;;;;4998375;28;20569;-68
2023/08/28 00:34:25;;;;;;;5.78;2.80;;;;;;;;;;4993324;28;20022;-68
2023/08/28 00:36:50;;;;;;;5.00;2.80;;;;;;;;;;4984895;28;20069;-68
2023/08/28 00:39:16;;;;;;;9.57;3.30;;;;;;;;;;4995558;28;20077;-68
2023/08/28 00:41:41;;;;;;;5.45;3.22;;;;;;;;;;4993799;28;20414;-68
2023/08/28 00:44:06;;;;;;;4.55;2.53;;;;;;;;;;4992195;28;20029;-68
2023/08/28 00:46:32;;;;;;;4.65;2.78;;;;;;;;;;4995584;28;20030;-68
2023/08/28 00:48:57;;;;;;;6.22;2.80;;;;;;;;;;4990048;28;20035;-68
2023/08/28 00:51:23;;;;;;;6.88;2.92;;;;;;;;;;4995767;28;20030;-68
2023/08/28 00:53:48;;;;;;;5.53;2.80;;;;;;;;;;5001266;28;20074;-68
2023/08/28 00:56:14;;;;;;;6.18;2.67;;;;;;;;;;4998171;28;20680;-68
2023/08/28 00:58:40;;;;;;;6.85;3.10;;;;;;;;;;4999262;28;20052;-68
2023/08/28 01:01:05;;;;;;;9.63;3.53;;;;;;;;;;4991802;28;20511;-68
2023/08/28 01:03:30;;;;;;;8.35;3.28;;;;;;;;;;4991111;28;20117;-68
2023/08/28 01:06:29;;;;;;;6.18;3.25;;;;;;;;;;4997231;28;20066;-68
2023/08/28 01:09:13;;;;;;;6.68;3.10;;;;;;;;;;4998923;28;20483;-68
2023/08/28 01:12:20;;;;;;;6.53;3.03;;;;;;;;;;4998366;28;20112;-68
2023/08/28 01:15:04;;;;;;;5.32;3.00;;;;;;;;;;4993697;28;20779;-68
2023/08/28 01:17:30;;;;;;;6.45;3.38;;;;;;;;;;4979544;28;20038;-68
2023/08/28 01:19:57;;;;;;;7.45;3.28;;;;;;;;;;4985328;28;20048;-68
2023/08/28 01:22:32;;;;;;;5.50;3.50;;;;;;;;;;4997696;28;20471;-68
2023/08/28 01:25:17;;;;;;;12.40;4.00;;;;;;;;;;4992765;28;20031;-68
2023/08/28 01:27:43;;;;;;;5.45;3.47;;;;;;;;;;4995812;28;20552;-68
2023/08/28 01:30:15;;;;;;;6.93;3.72;;;;;;;;;;4999515;28;20117;-68
2023/08/28 01:32:43;;;;;;;8.40;3.90;;;;;;;;;;4989143;28;20057;-68
2023/08/28 01:35:19;;;;;;;7.03;3.78;;;;;;;;;;4994064;28;20408;-68
2023/08/28 01:37:53;;;;;;;6.97;4.13;;;;;;;;;;4977105;28;20045;-68
2023/08/28 01:40:23;;;;;;;10.77;4.15;;;;;;;;;;4993467;28;20531;-68
2023/08/28 01:42:50;;;;;;;6.47;3.58;;;;;;;;;;4997977;28;20134;-68
2023/08/28 01:45:16;;;;;;;9.25;4.00;;;;;;;;;;4997609;28;20034;-68
2023/08/28 01:47:42;;;;;;;6.85;3.90;;;;;;;;;;4975772;28;20030;-68
2023/08/28 01:50:07;;;;;;;8.05;3.92;;;;;;;;;;5000157;28;20045;-68
2023/08/28 01:52:33;;;;;;;6.05;3.75;;;;;;;;;;4996730;28;20033;-68
2023/08/28 01:54:58;;;;;;;7.57;3.50;;;;;;;;;;4994155;28;20121;-68
2023/08/28 01:57:24;;;;;;;6.63;3.72;;;;;;;;;;4991802;28;20138;-68
2023/08/28 01:59:49;;;;;;;6.18;3.75;;;;;;;;;;4993211;28;20598;-68
2023/08/28 02:02:14;;;;;;;7.45;3.85;;;;;;;;;;4997679;28;20042;-68
2023/08/28 02:04:40;;;;;;;5.43;3.28;;;;;;;;;;4996503;28;20066;-68
2023/08/28 02:07:05;;;;;;;6.15;3.60;;;;;;;;;;4991581;28;20427;-68
2023/08/28 02:09:30;;;;;;;5.55;3.60;;;;;;;;;;4993311;28;20046;-68
2023/08/28 02:11:56;;;;;;;7.18;3.58;;;;;;;;;;4999792;28;20034;-68
2023/08/28 02:14:22;;;;;;;7.25;3.47;;;;;;;;;;5000798;28;20038;-68
2023/08/28 02:16:47;;;;;;;4.95;3.10;;;;;;;;;;4994849;28;20108;-68
2023/08/28 02:19:12;;;;;;;7.13;3.70;;;;;;;;;;4997047;28;20039;-68
2023/08/28 02:21:38;;;;;;;6.88;3.47;;;;;;;;;;4996676;28;20045;-68
2023/08/28 02:24:03;;;;;;;9.45;3.72;;;;;;;;;;4996398;28;20177;-68
2023/08/28 02:26:29;;;;;;;8.00;3.08;;;;;;;;;;5001429;28;20030;-68
2023/08/28 02:28:54;;;;;;;6.75;2.97;;;;;;;;;;5001241;28;20033;-68
2023/08/28 02:31:19;;;;;;;5.75;3.13;;;;;;;;;;4981939;28;20580;-68
2023/08/28 02:33:45;;;;;;;5.30;2.97;;;;;;;;;;4970088;28;20041;-68
2023/08/28 02:36:11;;;;;;;7.80;3.60;;;;;;;;;;4986845;28;20435;-68
2023/08/28 02:38:36;;;;;;;6.03;3.22;;;;;;;;;;4984742;28;20058;-68
2023/08/28 02:41:04;;;;;;;4.07;2.90;;;;;;;;;;4980956;28;20030;-68
2023/08/28 02:43:30;;;;;;;7.43;3.55;;;;;;;;;;4993635;28;20025;-68
2023/08/28 02:45:55;;;;;;;5.45;3.30;;;;;;;;;;4996720;28;20049;-68
2023/08/28 02:48:21;;;;;;;5.38;3.15;;;;;;;;;;4998326;28;20598;-68
2023/08/28 02:50:49;;;;;;;5.00;2.80;;;;;;;;;;4999271;28;20042;-68
2023/08/28 02:53:15;;;;;;;7.68;3.60;;;;;;;;;;4998644;28;20049;-68
2023/08/28 02:55:41;;;;;;;4.90;3.40;;;;;;;;;;5000384;28;20026;-68
2023/08/28 02:58:07;;;;;;;8.13;4.13;;;;;;;;;;5002037;28;20045;-68
2023/08/28 03:00:35;;;;;;;4.68;2.97;;;;;;;;;;4999755;28;20503;-68
2023/08/28 03:03:00;;;;;;;6.40;3.78;;;;;;;;;;4995193;28;20918;-68
2023/08/28 03:05:26;;;;;;;9.65;4.65;;;;;;;;;;4994370;28;20057;-68
2023/08/28 03:07:52;;;;;;;7.78;4.60;;;;;;;;;;4989490;28;20534;-68
2023/08/28 03:10:17;;;;;;;7.55;4.38;;;;;;;;;;4992327;28;20022;-68
2023/08/28 03:12:42;;;;;;;8.52;4.97;;;;;;;;;;4995157;28;20095;-68
2023/08/28 03:15:08;;;;;;;6.95;4.50;;;;;;;;;;5000914;28;20042;-68
2023/08/28 03:17:33;;;;;;;16.10;4.68;;;;;;;;;;5000364;28;20522;-68
2023/08/28 03:19:59;;;;;;;6.30;4.32;;;;;;;;;;4991695;28;20030;-68
2023/08/28 03:22:24;;;;;;;6.35;4.15;;;;;;;;;;5001313;28;20108;-68
2023/08/28 03:24:52;;;;;;;7.78;4.50;;;;;;;;;;4993030;28;20129;-68
2023/08/28 03:27:18;;;;;;;7.32;4.18;;;;;;;;;;4994378;28;20030;-68
2023/08/28 03:29:43;;;;;;;9.45;4.35;;;;;;;;;;5000257;28;20566;-68
2023/08/28 03:32:08;;;;;;;7.97;4.28;;;;;;;;;;4999737;28;20069;-68
2023/08/28 03:34:34;;;;;;;7.60;4.60;;;;;;;;;;5001846;28;20064;-68
2023/08/28 03:36:59;;;;;;;6.72;4.85;;;;;;;;;;4992982;28;20423;-68
2023/08/28 03:39:24;;;;;;;10.40;4.60;;;;;;;;;;4987425;28;20440;-68
2023/08/28 03:41:50;;;;;;;7.90;4.28;;;;;;;;;;4987508;28;20051;-68
2023/08/28 03:44:15;;;;;;;6.72;3.78;;;;;;;;;;5000463;28;20053;-68
2023/08/28 03:46:40;;;;;;;6.30;3.90;;;;;;;;;;4988314;28;20038;-68
2023/08/28 03:49:06;;;;;;;5.20;3.80;;;;;;;;;;5000085;28;20126;-68
2023/08/28 03:51:32;;;;;;;6.75;3.90;;;;;;;;;;4998069;28;20419;-68
2023/08/28 03:53:57;;;;;;;7.05;4.70;;;;;;;;;;4993702;28;20597;-68
2023/08/28 03:56:23;;;;;;;6.70;3.95;;;;;;;;;;4993823;28;20653;-68
2023/08/28 03:58:49;;;;;;;5.93;4.15;;;;;;;;;;4999032;28;20401;-68
2023/08/28 04:01:14;;;;;;;7.10;3.67;;;;;;;;;;4999387;28;20522;-68
2023/08/28 04:03:40;;;;;;;5.95;3.58;;;;;;;;;;4993166;28;20029;-68
2023/08/28 04:06:05;;;;;;;6.13;3.97;;;;;;;;;;4993900;28;20038;-68
2023/08/28 04:08:31;;;;;;;8.57;3.65;;;;;;;;;;5000088;28;20053;-68
2023/08/28 04:10:58;;;;;;;6.70;3.67;;;;;;;;;;5002079;28;20010;-68
2023/08/28 04:13:24;;;;;;;8.35;3.85;;;;;;;;;;4994979;28;20774;-68
2023/08/28 04:15:49;;;;;;;8.50;4.00;;;;;;;;;;4995864;28;20590;-68
2023/08/28 04:18:14;;;;;;;7.85;3.63;;;;;;;;;;5004916;28;20031;-68
2023/08/28 04:20:40;;;;;;;5.75;3.47;;;;;;;;;;5003195;28;20420;-68
2023/08/28 04:23:05;;;;;;;8.30;3.78;;;;;;;;;;4993441;28;20084;-68
2023/08/28 04:25:30;;;;;;;11.65;3.90;;;;;;;;;;4993199;28;20034;-68
2023/08/28 04:27:56;;;;;;;6.07;3.55;;;;;;;;;;4997552;28;20042;-68
2023/08/28 04:30:21;;;;;;;7.60;3.88;;;;;;;;;;4997135;28;20081;-68
2023/08/28 04:32:47;;;;;;;5.05;3.25;;;;;;;;;;5001429;28;20038;-68
2023/08/28 04:35:13;;;;;;;7.65;3.55;;;;;;;;;;4999607;28;20034;-68
2023/08/28 04:37:38;;;;;;;7.93;3.70;;;;;;;;;;4986399;28;20644;-68
2023/08/28 04:40:04;;;;;;;6.05;3.38;;;;;;;;;;4998951;28;20038;-68
2023/08/28 04:42:30;;;;;;;5.97;3.35;;;;;;;;;;4987238;28;20039;-68
2023/08/28 04:44:55;;;;;;;6.55;3.20;;;;;;;;;;4997125;28;20053;-68
2023/08/28 04:47:21;;;;;;;5.25;3.25;;;;;;;;;;4987464;28;20065;-68
2023/08/28 04:49:46;;;;;;;6.18;3.30;;;;;;;;;;4986562;28;20029;-68
2023/08/28 04:52:12;;;;;;;7.93;3.25;;;;;;;;;;4998847;28;20496;-68
2023/08/28 04:54:37;;;;;;;6.85;3.30;;;;;;;;;;4996502;28;20041;-68
2023/08/28 04:57:03;;;;;;;7.60;3.40;;;;;;;;;;4992382;28;20029;-68
2023/08/28 04:59:28;;;;;;;7.82;3.70;;;;;;;;;;4995049;28;20038;-68
2023/08/28 05:01:54;;;;;;;6.88;3.45;;;;;;;;;;4998255;28;20030;-68
2023/08/28 05:04:19;;;;;;;7.75;3.83;;;;;;;;;;4997411;28;20018;-68
2023/08/28 05:06:44;;;;;;;6.95;3.53;;;;;;;;;;4991836;28;20044;-68
2023/08/28 05:09:10;;;;;;;8.88;3.58;;;;;;;;;;4992904;28;20113;-68
2023/08/28 05:11:36;;;;;;;7.32;3.80;;;;;;;;;;4998689;28;20604;-68
2023/08/28 05:14:01;;;;;;;13.27;3.40;;;;;;;;;;4996219;28;20030;-68
2023/08/28 05:16:27;;;;;;;6.03;3.35;;;;;;;;;;4992456;28;20035;-68
2023/08/28 05:18:52;;;;;;;8.93;3.33;;;;;;;;;;4993170;28;20077;-68
2023/08/28 05:21:17;;;;;;;6.13;3.03;;;;;;;;;;4998430;28;20042;-68
2023/08/28 05:23:43;;;;;;;5.00;3.17;;;;;;;;;;4997498;28;20053;-68
2023/08/28 05:26:08;;;;;;;7.63;3.55;;;;;;;;;;4991506;28;20034;-68
2023/08/28 05:28:37;;;;;;;5.68;3.38;;;;;;;;;;4993552;28;20041;-68
2023/08/28 05:31:03;;;;;;;6.35;3.38;;;;;;;;;;4998452;28;20579;-68
2023/08/28 05:33:28;;;;;;;6.85;3.63;;;;;;;;;;4997729;28;20117;-68
2023/08/28 05:35:53;;;;;;;5.75;3.40;;;;;;;;;;5002353;28;20129;-68
2023/08/28 05:38:19;;;;;;;10.68;3.90;;;;;;;;;;4991092;28;20069;-68
2023/08/28 05:40:45;;;;;;;7.45;4.00;;;;;;;;;;5000588;28;20085;-67
2023/08/28 05:43:10;;;;;;;7.40;4.03;;;;;;;;;;4999761;28;20061;-68
2023/08/28 05:45:37;;;;;;;8.30;4.15;;;;;;;;;;4995930;28;20082;-68
2023/08/28 05:48:02;;;;;;;9.68;3.95;;;;;;;;;;4990037;28;20064;-68
2023/08/28 05:50:27;;;;;;;7.60;3.70;;;;;;;;;;4996605;28;20531;-68
2023/08/28 05:52:53;;;;;;;7.57;3.85;;;;;;;;;;4991618;28;20088;-68
2023/08/28 05:55:18;;;;;;;7.43;4.13;;;;;;;;;;4988104;28;20021;-68
2023/08/28 05:57:43;;;;;;;9.45;4.70;;;;;;;;;;4995263;28;20097;-68
2023/08/28 06:00:12;;;;;;;8.85;4.20;;;;;;;;;;4998133;28;20054;-68
2023/08/28 06:02:38;;;;;;;11.07;4.95;;;;;;;;;;4995246;28;20041;-68
2023/08/28 06:05:04;;;;;;;6.93;4.40;;;;;;;;;;4991724;28;20052;-68
2023/08/28 06:07:29;;;;;;;8.45;4.85;;;;;;;;;;4994769;28;20030;-67
2023/08/28 06:09:55;;;;;;;7.20;4.40;;;;;;;;;;4986192;28;20451;-67
2023/08/28 06:12:20;;;;;;;10.55;4.82;;;;;;;;;;4970705;28;20417;-67
2023/08/28 06:14:46;;;;;;;9.63;4.40;;;;;;;;;;4971100;28;20136;-68
2023/08/28 06:17:11;;;;;;;7.72;4.80;;;;;;;;;;4983251;28;20062;-68
2023/08/28 06:19:36;;;;;;;11.27;4.53;;;;;;;;;;4998262;28;20023;-68
2023/08/28 06:22:04;;;;;;;10.10;4.32;;;;;;;;;;4996462;28;20045;-68
2023/08/28 06:24:29;;;;;;;12.60;4.85;;;;;;;;;;4988586;28;20122;-68
2023/08/28 06:26:55;;;;;;;9.70;4.50;;;;;;;;;;4992090;28;20125;-67
2023/08/28 06:29:20;;;;;;;10.35;3.97;;;;;;;;;;4997799;28;20345;-68
2023/08/28 06:31:45;;;;;;;8.85;3.75;;;;;;;;;;4979942;28;20639;-67
2023/08/28 06:34:11;;;;;;;13.05;4.18;;;;;;;;;;4993787;28;20113;-68
2023/08/28 06:36:36;;;;;;;5.85;3.80;;;;;;;;;;4999134;28;20038;-68
2023/08/28 06:39:02;;;;;;;6.90;3.47;;;;;;;;;;4997158;28;20140;-68
2023/08/28 06:41:28;;;;;;;7.07;4.28;;;;;;;;;;4994091;28;20082;-68
2023/08/28 06:43:53;;;;;;;7.82;4.00;;;;;;;;;;5004238;28;20036;-68
2023/08/28 06:46:18;;;;;;;10.40;3.90;;;;;;;;;;4982531;28;20022;-68
2023/08/28 06:48:44;;;;;;;9.23;4.30;;;;;;;;;;4999426;28;20038;-68
2023/08/28 06:51:12;;;;;;;7.35;3.90;;;;;;;;;;4996042;28;20045;-68
2023/08/28 06:53:38;;;;;;;7.25;4.40;;;;;;;;;;5001440;28;20116;-68
2023/08/28 06:56:04;;;;;;;8.88;4.00;;;;;;;;;;4986933;28;20037;-68
2023/08/28 06:58:29;;;;;;;10.77;4.57;;;;;;;;;;4993853;28;20022;-68
2023/08/28 07:00:55;;;;;;;8.75;4.75;;;;;;;;;;4998544;28;20077;-68
2023/08/28 07:03:20;;;;;;;11.38;4.53;;;;;;;;;;5001782;28;20042;-68
2023/08/28 07:05:46;;;;;;;12.27;4.18;;;;;;;;;;5001025;28;20037;-68
2023/08/28 07:08:11;;;;;;;8.63;4.70;;;;;;;;;;4999076;28;20038;-68
2023/08/28 07:10:36;;;;;;;9.05;4.57;;;;;;;;;;4994351;28;20113;-68
2023/08/28 07:13:02;;;;;;;13.95;5.05;;;;;;;;;;4990726;28;20117;-68
2023/08/28 07:15:30;;;;;;;10.10;5.15;;;;;;;;;;4997903;28;20089;-68
2023/08/28 07:17:55;;;;;;;11.38;4.97;;;;;;;;;;4991234;28;20042;-68
2023/08/28 07:20:23;;;;;;;12.55;5.45;;;;;;;;;;4986675;28;20048;-68
2023/08/28 07:22:48;;;;;;;10.63;4.80;;;;;;;;;;4964824;28;20053;-68
2023/08/28 07:25:16;;;;;;;10.98;5.53;;;;;;;;;;4983237;28;20039;-68
2023/08/28 07:27:42;;;;;;;12.20;4.95;;;;;;;;;;4990099;28;20023;-68
2023/08/28 07:30:08;;;;;;;11.13;5.00;;;;;;;;;;4990540;28;20403;-68
2023/08/28 07:32:34;;;;;;;12.82;4.90;;;;;;;;;;4993206;28;20046;-68
2023/08/28 07:35:00;;;;;;;9.68;4.95;;;;;;;;;;4996775;28;20039;-68
2023/08/28 07:37:29;;;;;;;8.50;4.75;;;;;;;;;;4998569;28;20054;-68
2023/08/28 07:39:54;;;;;;;9.63;4.68;;;;;;;;;;4990182;28;20026;-68
2023/08/28 07:42:20;;;;;;;10.63;4.88;;;;;;;;;;4985408;28;20577;-67
2023/08/28 07:44:46;;;;;;;10.43;4.68;;;;;;;;;;4976426;28;20416;-67
2023/08/28 07:47:12;;;;;;;10.07;3.95;;;;;;;;;;4979812;28;20058;-68
2023/08/28 07:49:38;;;;;;;7.22;4.13;;;;;;;;;;4996901;28;20034;-68
2023/08/28 07:52:04;;;;;;;10.65;4.47;;;;;;;;;;4984833;28;20057;-67
2023/08/28 07:54:29;;;;;;;7.50;4.30;;;;;;;;;;4977009;28;20113;-67
2023/08/28 07:56:54;;;;;;;8.77;4.82;;;;;;;;;;4979164;28;20038;-67
2023/08/28 07:59:20;;;;;;;11.73;3.92;;;;;;;;;;4965129;28;20069;-68
2023/08/28 08:01:45;;;;;;;5.95;3.55;;;;;;;;;;4982126;28;20381;-68
2023/08/28 08:04:10;;;;;;;5.30;3.35;;;;;;;;;;4981784;28;20097;-67
2023/08/28 08:06:36;;;;;;;6.38;3.78;;;;;;;;;;4979258;28;20058;-67
2023/08/28 08:09:01;;;;;;;8.88;4.18;;;;;;;;;;4978727;28;21130;-67
2023/08/28 08:11:27;;;;;;;8.32;4.40;;;;;;;;;;4979874;28;20053;-67
2023/08/28 08:13:52;;;;;;;7.97;4.10;;;;;;;;;;4980610;28;20096;-68
2023/08/28 08:16:17;;;;;;;7.75;4.47;;;;;;;;;;4985963;28;20104;-68
2023/08/28 08:18:43;;;;;;;7.28;3.75;;;;;;;;;;4988352;28;20022;-68
2023/08/28 08:21:08;;;;;;;5.80;3.30;;;;;;;;;;4996780;28;20036;-68
2023/08/28 08:23:33;;;;;;;7.07;3.70;;;;;;;;;;4980867;28;20154;-68
2023/08/28 08:25:59;;;;;;;8.00;3.90;;;;;;;;;;4983298;28;20129;-68
2023/08/28 08:28:24;;;;;;;13.77;3.88;;;;;;;;;;4980411;28;20052;-67
2023/08/28 08:30:49;;;;;;;8.02;3.30;;;;;;;;;;4980334;28;20037;-68
2023/08/28 08:33:15;;;;;;;5.35;3.50;;;;;;;;;;4988393;28;20089;-68
2023/08/28 08:35:40;;;;;;;9.20;3.40;;;;;;;;;;4988942;28;20068;-69
2023/08/28 08:38:06;;;;;;;12.10;3.22;;;;;;;;;;4982797;28;20060;-68
2023/08/28 08:40:32;;;;;;;5.63;2.78;;;;;;;;;;4986121;28;20464;-68
2023/08/28 08:42:57;;;;;;;5.25;3.00;;;;;;;;;;4972389;28;20040;-68
2023/08/28 08:45:30;;;;;;;4.57;3.03;;;;;;;;;;4947467;28;20034;-67
2023/08/28 08:47:58;;;;;;;3.60;2.75;;;;;;;;;;4978082;28;20038;-68
2023/08/28 08:50:26;;;;;;;5.90;2.97;;;;;;;;;;4982950;28;20038;-68
2023/08/28 08:52:51;;;;;;;6.35;2.20;;;;;;;;;;4952605;28;21008;-68
2023/08/28 08:55:23;;;;;;;3.17;2.13;;;;;;;;;;4970399;28;20142;-68
2023/08/28 08:57:53;;;;;;;7.10;3.00;;;;;;;;;;4964261;28;20045;-68
2023/08/28 09:00:19;;;;;;;6.53;2.67;;;;;;;;;;4940858;28;20658;-68
2023/08/28 09:02:45;;;;;;;3.90;2.35;;;;;;;;;;4975818;28;20535;-68
2023/08/28 09:05:10;;;;;;;4.55;2.10;;;;;;;;;;4975428;28;20507;-68
2023/08/28 09:07:39;;;;;;;4.70;2.38;;;;;;;;;;4981956;28;20057;-68
2023/08/28 09:10:05;;;;;;;3.80;2.08;;;;;;;;;;4967557;28;20038;-68
2023/08/28 09:12:31;;;;;;;5.78;2.38;;;;;;;;;;4983832;28;20037;-68
2023/08/28 09:14:57;;;;;;;2.38;1.60;;;;;;;;;;4984851;28;20042;-68
2023/08/28 09:17:24;;;;;;;2.35;1.63;;;;;;;;;;4984669;28;20472;-68
2023/08/28 09:19:50;;;;;;;5.97;1.88;;;;;;;;;;4975108;28;20157;-68
2023/08/28 09:22:15;;;;;;;3.60;1.75;;;;;;;;;;4996806;28;20125;-68
2023/08/28 09:24:40;;;;;;;3.63;1.92;;;;;;;;;;4991367;28;20065;-68
2023/08/28 09:27:06;;;;;;;2.60;1.70;;;;;;;;;;4992872;28;20103;-68
2023/08/28 09:29:31;;;;;;;3.55;1.80;;;;;;;;;;4997989;28;20034;-68
2023/08/28 09:32:03;;;;;;;2.95;1.77;;;;;;;;;;4961746;28;20144;-68
2023/08/28 09:34:39;;;;;;;2.50;1.70;;;;;;;;;;4997221;28;20049;-68
2023/08/28 09:37:09;;;;;;;3.88;1.70;;;;;;;;;;4993758;28;20751;-68
2023/08/28 09:39:36;;;;;;;4.13;1.70;;;;;;;;;;4989862;28;20029;-68
2023/08/28 09:42:05;;;;;;;3.28;1.63;;;;;;;;;;4990486;28;20054;-69
2023/08/28 09:44:34;;;;;;;3.63;2.00;;;;;;;;;;4998910;28;20797;-69
2023/08/28 09:47:00;;;;;;;5.38;1.90;;;;;;;;;;4970561;28;20090;-68
2023/08/28 09:49:25;;;;;;;2.75;1.92;;;;;;;;;;4983272;28;20637;-68
2023/08/28 09:51:51;;;;;;;3.22;2.08;;;;;;;;;;4985981;28;20041;-67
2023/08/28 09:54:17;;;;;;;3.38;1.85;;;;;;;;;;4989193;28;20038;-69
2023/08/28 09:56:44;;;;;;;3.30;1.63;;;;;;;;;;5005514;28;20049;-68
2023/08/28 09:59:11;;;;;;;2.97;1.67;;;;;;;;;;4981363;28;20042;-68
2023/08/28 10:01:37;;;;;;;3.97;1.70;;;;;;;;;;4977511;28;20047;-67
2023/08/28 10:04:08;;;;;;;4.18;1.90;;;;;;;;;;4989126;28;20034;-68
2023/08/28 10:06:38;;;;;;;3.17;2.00;;;;;;;;;;4984447;28;20034;-68
2023/08/28 10:09:06;;;;;;;4.18;1.80;;;;;;;;;;4995315;28;20046;-68
2023/08/28 10:11:36;;;;;;;4.20;1.67;;;;;;;;;;4990031;28;20531;-68
2023/08/28 10:14:03;;;;;;;3.58;1.90;;;;;;;;;;4992759;28;20128;-68
2023/08/28 10:16:33;;;;;;;5.68;3.15;;;;;;;;;;4996939;28;20054;-68
2023/08/28 10:19:25;;;;;;;5.43;1.90;;;;;;;;;;4993630;28;20045;-68
2023/08/28 10:21:51;;;;;;;3.35;1.70;;;;;;;;;;4979860;28;20030;-67
2023/08/28 10:24:17;;;;;;;2.80;1.83;;;;;;;;;;4997238;28;20034;-68
2023/08/28 10:26:43;;;;;;;4.20;2.58;;;;;;;;;;4990871;28;20538;-68
2023/08/28 10:29:10;;;;;;;3.50;2.33;;;;;;;;;;4989621;28;20034;-68
2023/08/28 10:31:37;;;;;;;5.05;2.00;;;;;;;;;;4980466;28;20129;-68
2023/08/28 10:34:08;;;;;;;4.55;2.00;;;;;;;;;;4929137;28;20030;-68
2023/08/28 10:36:35;;;;;;;7.43;2.63;;;;;;;;;;4986326;28;20080;-68
2023/08/28 10:39:01;;;;;;;3.95;2.30;;;;;;;;;;4989696;28;20046;-68
2023/08/28 10:41:28;;;;;;;3.25;2.30;;;;;;;;;;4995943;28;20050;-69
2023/08/28 10:43:56;;;;;;;2.53;2.08;;;;;;;;;;4999543;28;20042;-68
2023/08/28 10:46:22;;;;;;;3.67;2.20;;;;;;;;;;4985689;28;20039;-68
2023/08/28 10:48:54;;;;;;;3.60;2.53;;;;;;;;;;5000028;28;20030;-69
2023/08/28 10:51:20;;;;;;;3.88;2.03;;;;;;;;;;4996555;28;20060;-68
2023/08/28 10:53:46;;;;;;;2.85;2.00;;;;;;;;;;4976224;28;20517;-68
2023/08/28 10:56:12;;;;;;;3.85;2.40;;;;;;;;;;4995608;28;20049;-69
2023/08/28 10:58:38;;;;;;;2.78;2.30;;;;;;;;;;4992473;28;20038;-69
2023/08/28 11:01:16;;;;;;;3.22;2.33;;;;;;;;;;4997912;28;20472;-68
2023/08/28 11:03:51;;;;;;;3.97;2.47;;;;;;;;;;4992733;28;20025;-68
2023/08/28 11:06:43;;;;;;;5.40;2.67;;;;;;;;;;4979080;28;20419;-69
2023/08/28 11:09:27;;;;;;;3.65;2.35;;;;;;;;;;4994822;28;20042;-69
2023/08/28 11:12:01;;;;;;;3.47;2.03;;;;;;;;;;4982309;28;20049;-69
2023/08/28 11:14:41;;;;;;;4.82;2.20;;;;;;;;;;4988592;28;20770;-69
2023/08/28 11:17:18;;;;;;;2.70;1.88;;;;;;;;;;4996790;28;20037;-69
2023/08/28 11:19:56;;;;;;;4.13;2.50;;;;;;;;;;5001597;28;20049;-69
2023/08/28 11:22:46;;;;;;;4.22;2.30;;;;;;;;;;5008994;28;20058;-69
2023/08/28 11:25:13;;;;;;;4.65;2.83;;;;;;;;;;5000004;28;20096;-69
2023/08/28 11:27:50;;;;;;;3.90;3.22;;;;;;;;;;5001480;28;20040;-69
2023/08/28 11:30:17;;;;;;;3.63;2.60;;;;;;;;;;4999246;28;20041;-69
2023/08/28 11:32:45;;;;;;;6.97;2.70;;;;;;;;;;4990656;28;20078;-69
2023/08/28 11:35:14;;;;;;;3.88;2.72;;;;;;;;;;4991511;28;20034;-69
2023/08/28 11:37:41;;;;;;;5.97;2.83;;;;;;;;;;4997858;28;20637;-68
2023/08/28 11:40:09;;;;;;;5.57;3.17;;;;;;;;;;4999032;28;20573;-68
2023/08/28 11:42:37;;;;;;;5.35;3.15;;;;;;;;;;4987770;28;20500;-68
2023/08/28 11:45:04;;;;;;;5.45;3.40;;;;;;;;;;4995972;28;20512;-68
2023/08/28 11:47:32;;;;;;;5.60;3.88;;;;;;;;;;4989796;28;20053;-68
2023/08/28 11:49:59;;;;;;;6.63;3.83;;;;;;;;;;4991788;28;20038;-68
2023/08/28 11:52:25;;;;;;;10.27;4.20;;;;;;;;;;5000398;28;20525;-68
2023/08/28 11:54:51;;;;;;;3.95;3.08;;;;;;;;;;4998461;28;20088;-68
2023/08/28 11:57:18;;;;;;;5.63;3.40;;;;;;;;;;4991462;28;20499;-68
2023/08/28 11:59:45;;;;;;;4.20;2.95;;;;;;;;;;4954971;28;20046;-68
2023/08/28 12:02:14;;;;;;;5.38;2.80;;;;;;;;;;4992202;28;20133;-69
2023/08/28 12:04:42;;;;;;;5.45;3.50;;;;;;;;;;4992052;28;20096;-68
2023/08/28 12:07:18;;;;;;;4.97;3.20;;;;;;;;;;4996793;28;20038;-68
2023/08/28 12:09:45;;;;;;;7.50;3.45;;;;;;;;;;4980861;28;20026;-69
2023/08/28 12:12:13;;;;;;;6.97;3.55;;;;;;;;;;4995429;28;20096;-68
2023/08/28 12:14:44;;;;;;;6.47;3.30;;;;;;;;;;4980167;28;20743;-68
2023/08/28 12:17:22;;;;;;;9.25;3.97;;;;;;;;;;4996045;28;20045;-68
2023/08/28 12:19:51;;;;;;;6.57;3.65;;;;;;;;;;4991982;28;20590;-68
2023/08/28 12:22:20;;;;;;;6.43;3.38;;;;;;;;;;4990915;28;20062;-69
2023/08/28 12:24:47;;;;;;;5.63;3.50;;;;;;;;;;4965851;28;20030;-68
2023/08/28 12:27:15;;;;;;;6.10;3.65;;;;;;;;;;4961203;28;20508;-67
2023/08/28 12:29:41;;;;;;;5.75;3.95;;;;;;;;;;4955090;28;20122;-67
2023/08/28 12:32:08;;;;;;;8.45;4.15;;;;;;;;;;4971588;28;20050;-68
2023/08/28 12:34:34;;;;;;;6.70;4.10;;;;;;;;;;4996055;28;20073;-68
2023/08/28 12:37:07;;;;;;;7.28;3.50;;;;;;;;;;4998249;28;20072;-68
2023/08/28 12:39:33;;;;;;;;;;;;;;;;;;4985163;28;20053;-68
2023/08/28 12:41:58;;;;;;;5.88;3.53;;;;;;;;;;4993020;28;20408;-68
2023/08/28 12:44:27;;;;;;;3.97;2.70;;;;;;;;;;5002590;28;20061;-68
2023/08/28 12:46:52;;;;;;;4.70;3.15;;;;;;;;;;4978345;28;20030;-68
2023/08/28 12:49:18;;;;;;;6.13;2.90;;;;;;;;;;4945292;28;20049;-67
2023/08/28 12:51:44;;;;;;;4.63;2.67;;;;;;;;;;4940060;28;20053;-67
2023/08/28 12:54:12;;;;;;;3.40;2.30;;;;;;;;;;4974463;28;20052;-68
2023/08/28 12:56:41;;;;;;;4.75;2.78;;;;;;;;;;4989675;28;20038;-68
2023/08/28 12:59:06;;;;;;;4.35;2.60;;;;;;;;;;4996518;28;20039;-68
2023/08/28 13:01:32;;;;;;;4.40;2.67;;;;;;;;;;4997446;28;20108;-68
2023/08/28 13:03:57;;;;;;;3.42;2.55;;;;;;;;;;4987776;28;20030;-68
2023/08/28 13:06:23;;;;;;;4.20;2.60;;;;;;;;;;4975430;28;20034;-68
2023/08/28 13:08:49;;;;;;;3.35;2.40;;;;;;;;;;4966164;28;20030;-68
2023/08/28 13:11:15;;;;;;;4.15;2.45;;;;;;;;;;4978976;28;20428;-68
2023/08/28 13:13:40;;;;;;;5.15;3.13;;;;;;;;;;4975379;28;20035;-68
2023/08/28 13:16:06;;;;;;;3.83;2.53;;;;;;;;;;4980542;28;20053;-68
2023/08/28 13:18:31;;;;;;;5.28;2.97;;;;;;;;;;4993869;28;20513;-69
2023/08/28 13:20:56;;;;;;;3.20;2.65;;;;;;;;;;4989972;28;20514;-68
2023/08/28 13:23:22;;;;;;;3.00;2.60;;;;;;;;;;4995004;28;20471;-69
2023/08/28 13:25:47;;;;;;;3.20;2.55;;;;;;;;;;4996684;28;20053;-68
2023/08/28 13:28:14;;;;;;;4.10;3.05;;;;;;;;;;4994258;28;20107;-68
2023/08/28 13:30:39;;;;;;;5.28;3.33;;;;;;;;;;4983967;28;20033;-68
2023/08/28 13:33:05;;;;;;;5.85;3.10;;;;;;;;;;4999059;28;20030;-68
2023/08/28 13:35:32;;;;;;;4.50;2.97;;;;;;;;;;4997079;28;20035;-68
2023/08/28 13:37:57;;;;;;;4.22;2.95;;;;;;;;;;4976135;28;20050;-68
2023/08/28 13:40:23;;;;;;;5.32;2.95;;;;;;;;;;4994959;28;20103;-68
2023/08/28 13:42:48;;;;;;;7.57;3.00;;;;;;;;;;4987713;28;20104;-68
2023/08/28 13:45:14;;;;;;;4.68;3.90;;;;;;;;;;4993774;28;20042;-68
2023/08/28 13:47:40;;;;;;;4.63;3.20;;;;;;;;;;4988153;28;20487;-68
2023/08/28 13:50:06;;;;;;;6.88;3.58;;;;;;;;;;4991475;28;20035;-69
2023/08/28 13:52:32;;;;;;;7.05;3.50;;;;;;;;;;4996697;28;20030;-68
2023/08/28 13:55:04;;;;;;;4.05;3.22;;;;;;;;;;4997823;28;20026;-68
2023/08/28 13:57:30;;;;;;;5.05;3.35;;;;;;;;;;4980571;28;20026;-69
2023/08/28 13:59:55;;;;;;;5.95;3.60;;;;;;;;;;4989928;28;20042;-68
2023/08/28 14:02:21;;;;;;;6.00;3.53;;;;;;;;;;4994129;28;20546;-68
2023/08/28 14:04:46;;;;;;;5.88;3.67;;;;;;;;;;4995451;28;20052;-68
2023/08/28 14:07:11;;;;;;;7.18;3.17;;;;;;;;;;4971666;28;20042;-68
2023/08/28 14:09:37;;;;;;;4.35;3.17;;;;;;;;;;4996843;28;20029;-68
2023/08/28 14:12:03;;;;;;;3.63;2.97;;;;;;;;;;4993056;28;20096;-68
2023/08/28 14:14:28;;;;;;;4.97;3.33;;;;;;;;;;5005730;28;20129;-68
2023/08/28 14:16:53;;;;;;;5.43;3.30;;;;;;;;;;4997635;28;20045;-69
2023/08/28 14:19:19;;;;;;;5.38;3.42;;;;;;;;;;4956038;28;20983;-68
2023/08/28 14:21:44;;;;;;;4.28;2.90;;;;;;;;;;4979524;28;20129;-68
2023/08/28 14:24:09;;;;;;;4.63;2.90;;;;;;;;;;4977712;28;20034;-68
2023/08/28 14:26:35;;;;;;;4.97;2.85;;;;;;;;;;4977735;28;20393;-68
2023/08/28 14:29:00;;;;;;;4.32;2.72;;;;;;;;;;4980678;28;20608;-68
2023/08/28 14:31:25;;;;;;;4.80;2.70;;;;;;;;;;4987051;28;20038;-68
2023/08/28 14:33:51;;;;;;;3.65;3.08;;;;;;;;;;4990749;28;20113;-67
2023/08/28 14:36:16;;;;;;;4.80;2.90;;;;;;;;;;5004867;28;20045;-68
2023/08/28 14:38:42;;;;;;;4.90;2.85;;;;;;;;;;4987089;28;20130;-68
2023/08/28 14:41:07;;;;;;;5.03;2.78;;;;;;;;;;4998101;28;20042;-68